Time;durP1;ratioP1;P1;durP2;ratioP2;P2;SDS_P1;SDS_P2;PMS_P1;PMS_P2;Temp;Humidity;BMP_temperature;BMP_pressure;BME280_temperature;BME280_humidity;BME280_pressure;Samples;Min_cycle;Max_cycle;Signal;HPM_P1;HPM_P2
2023/12/06 00:02:04;;;;;;;33.60;17.17;;;;;;;0.53;100.00;100533.19;5037702;28;20212;-74
2023/12/06 00:04:31;;;;;;;34.37;17.70;;;;;;;0.50;100.00;100531.88;5037897;28;20204;-73
2023/12/06 00:06:57;;;;;;;37.23;18.37;;;;;;;0.44;100.00;100535.53;5035722;28;20223;-74
2023/12/06 00:09:23;;;;;;;34.33;16.60;;;;;;;0.41;100.00;100522.25;5036614;28;20204;-74
2023/12/06 00:11:50;;;;;;;34.30;17.07;;;;;;;0.38;100.00;100530.59;5038063;28;20606;-74
2023/12/06 00:14:17;;;;;;;34.47;16.67;;;;;;;0.34;100.00;100532.94;5035517;28;20689;-74
2023/12/06 00:16:43;;;;;;;36.47;17.50;;;;;;;0.32;100.00;100529.03;5037826;28;20226;-74
2023/12/06 00:19:09;;;;;;;31.57;16.50;;;;;;;0.31;100.00;100540.44;5038702;28;20214;-73
2023/12/06 00:21:36;;;;;;;37.07;18.87;;;;;;;0.32;100.00;100544.63;5035413;28;20212;-74
2023/12/06 00:24:04;;;;;;;32.17;17.37;;;;;;;0.31;100.00;100541.22;5040193;28;20218;-74
2023/12/06 00:26:30;;;;;;;33.53;17.50;;;;;;;0.33;100.00;100546.94;5037880;28;20674;-74
2023/12/06 00:28:58;;;;;;;37.47;18.50;;;;;;;0.33;100.00;100541.72;5039469;28;20207;-74
2023/12/06 00:31:24;;;;;;;35.93;17.90;;;;;;;0.34;100.00;100542.53;5037357;28;20256;-74
2023/12/06 00:33:51;;;;;;;38.90;20.40;;;;;;;0.34;100.00;100545.13;5034020;28;20204;-74
2023/12/06 00:36:17;;;;;;;39.47;20.53;;;;;;;0.35;100.00;100546.66;5034937;28;20207;-74
2023/12/06 00:38:43;;;;;;;34.47;18.00;;;;;;;0.36;100.00;100543.03;5040857;28;20214;-74
2023/12/06 00:41:10;;;;;;;42.53;19.83;;;;;;;0.37;100.00;100542.78;5042192;28;20586;-74
2023/12/06 00:43:36;;;;;;;35.47;17.77;;;;;;;0.36;100.00;100538.63;5038373;28;20578;-73
2023/12/06 00:46:04;;;;;;;34.37;16.77;;;;;;;0.37;100.00;100547.22;5039772;28;20203;-74
2023/12/06 00:48:30;;;;;;;39.07;18.07;;;;;;;0.38;100.00;100543.56;5036764;28;20222;-74
2023/12/06 00:50:57;;;;;;;34.97;17.70;;;;;;;0.39;100.00;100548.50;5042778;28;20203;-74
2023/12/06 00:53:23;;;;;;;32.37;18.30;;;;;;;0.40;100.00;100555.25;5038899;28;20215;-74
2023/12/06 00:55:49;;;;;;;31.57;17.27;;;;;;;0.39;100.00;100547.72;5044195;28;20232;-74
2023/12/06 00:58:15;;;;;;;40.23;18.93;;;;;;;0.38;100.00;100544.34;5041469;28;20218;-73
2023/12/06 01:00:42;;;;;;;35.93;18.37;;;;;;;0.39;100.00;100547.72;5040778;28;20655;-74
2023/12/06 01:03:09;;;;;;;38.13;18.53;;;;;;;0.39;100.00;100550.31;5039682;28;20219;-74
2023/12/06 01:05:36;;;;;;;39.97;19.03;;;;;;;0.39;100.00;100545.91;5040540;28;20199;-73
2023/12/06 01:08:02;;;;;;;38.37;18.90;;;;;;;0.41;100.00;100556.03;5044826;28;20238;-74
2023/12/06 01:10:29;;;;;;;38.83;19.47;;;;;;;0.41;100.00;100556.03;5040234;28;20299;-75
2023/12/06 01:12:55;;;;;;;37.00;18.57;;;;;;;0.41;100.00;100548.22;5038042;28;20235;-75
2023/12/06 01:15:21;;;;;;;38.73;19.47;;;;;;;0.42;100.00;100555.00;5041004;28;20206;-74
2023/12/06 01:17:48;;;;;;;34.60;18.87;;;;;;;0.42;100.00;100553.16;5037736;28;20211;-75
2023/12/06 01:20:16;;;;;;;36.10;19.20;;;;;;;0.42;100.00;100552.41;5036158;28;20219;-73
2023/12/06 01:22:42;;;;;;;39.23;18.40;;;;;;;0.43;100.00;100549.53;5043351;28;20295;-75
2023/12/06 01:25:09;;;;;;;36.30;18.37;;;;;;;0.44;100.00;100539.94;5045647;28;20207;-73
2023/12/06 01:27:35;;;;;;;35.80;18.00;;;;;;;0.44;100.00;100543.31;5039357;28;20236;-74
2023/12/06 01:30:02;;;;;;;36.47;18.83;;;;;;;0.44;100.00;100547.72;5036399;28;20265;-75
2023/12/06 01:32:28;;;;;;;34.33;18.60;;;;;;;0.45;100.00;100552.66;5037428;28;20218;-74
2023/12/06 01:34:55;;;;;;;35.97;18.90;;;;;;;0.46;100.00;100550.81;5045305;28;20199;-74
2023/12/06 01:37:23;;;;;;;35.93;17.73;;;;;;;0.48;100.00;100551.38;5040109;28;20582;-74
2023/12/06 01:39:50;;;;;;;39.17;18.73;;;;;;;0.49;100.00;100555.53;5039160;28;20699;-74
2023/12/06 01:42:16;;;;;;;38.70;20.07;;;;;;;0.47;100.00;100549.81;5040632;28;20207;-74
2023/12/06 01:44:43;;;;;;;35.57;19.20;;;;;;;0.49;100.00;100547.72;5039441;28;20195;-74
2023/12/06 01:47:10;;;;;;;40.17;19.50;;;;;;;0.50;100.00;100557.06;5054711;28;20223;-74
2023/12/06 01:49:36;;;;;;;38.23;19.20;;;;;;;0.51;100.00;100556.03;5044147;28;20211;-74
2023/12/06 01:52:03;;;;;;;36.93;19.17;;;;;;;0.51;100.00;100553.44;5042465;28;20191;-74
2023/12/06 01:54:31;;;;;;;37.83;19.70;;;;;;;0.50;100.00;100550.06;5041786;28;20214;-75
2023/12/06 01:56:57;;;;;;;39.03;19.20;;;;;;;0.51;100.00;100546.44;5038287;28;20230;-74
2023/12/06 01:59:25;;;;;;;39.67;19.83;;;;;;;0.53;100.00;100533.19;5039461;28;20560;-74
2023/12/06 02:01:51;;;;;;;37.03;19.20;;;;;;;0.53;100.00;100544.34;5042150;28;20415;-74
2023/12/06 02:04:17;;;;;;;34.47;18.00;;;;;;;0.52;100.00;100540.19;5039512;28;20191;-74
2023/12/06 02:06:44;;;;;;;40.03;18.80;;;;;;;0.54;100.00;100542.53;5042174;28;20219;-74
2023/12/06 02:09:12;;;;;;;42.07;20.23;;;;;;;0.54;100.00;100539.94;5041774;28;20207;-74
2023/12/06 02:11:40;;;;;;;42.40;20.33;;;;;;;0.54;100.00;100530.34;5041344;28;20527;-74
2023/12/06 02:14:06;;;;;;;36.37;18.10;;;;;;;0.54;100.00;100535.53;5035390;28;20200;-74
2023/12/06 02:16:33;;;;;;;41.17;20.43;;;;;;;0.54;100.00;100529.53;5040150;28;20230;-74
2023/12/06 02:19:00;;;;;;;38.33;18.20;;;;;;;0.53;100.00;100531.34;5040725;28;20206;-75
2023/12/06 02:21:27;;;;;;;39.67;20.30;;;;;;;0.53;100.00;100533.19;5040638;28;20619;-74
2023/12/06 02:23:56;;;;;;;40.13;19.10;;;;;;;0.53;100.00;100533.19;5040719;28;21143;-73
2023/12/06 02:26:23;;;;;;;36.70;19.07;;;;;;;0.51;100.00;100525.66;5037554;28;20199;-74
2023/12/06 02:28:53;;;;;;;38.13;19.50;;;;;;;0.52;100.00;100524.59;5044634;28;20225;-74
2023/12/06 02:31:19;;;;;;;37.47;18.83;;;;;;;0.53;100.00;100525.41;5038992;28;20227;-75
2023/12/06 02:33:47;;;;;;;38.33;20.13;;;;;;;0.52;100.00;100529.03;5045035;28;20184;-74
2023/12/06 02:36:14;;;;;;;37.50;19.37;;;;;;;0.52;100.00;100532.41;5041878;28;20214;-75
2023/12/06 02:38:41;;;;;;;39.00;20.77;;;;;;;0.50;100.00;100538.88;5041088;28;20566;-73
2023/12/06 02:41:11;;;;;;;44.77;20.80;;;;;;;0.50;100.00;100537.09;5040420;28;20666;-75
2023/12/06 02:43:38;;;;;;;35.93;19.23;;;;;;;0.49;100.00;100543.31;5038391;28;20214;-75
2023/12/06 02:46:06;;;;;;;39.80;19.50;;;;;;;0.49;100.00;100543.31;5039343;28;20200;-74
2023/12/06 02:48:33;;;;;;;39.53;19.00;;;;;;;0.49;100.00;100534.75;5037120;28;20216;-74
2023/12/06 02:50:59;;;;;;;35.83;19.17;;;;;;;0.48;100.00;100536.53;5039508;28;20368;-74
2023/12/06 02:53:26;;;;;;;38.93;20.47;;;;;;;0.48;100.00;100531.34;5044602;28;20207;-74
2023/12/06 02:55:52;;;;;;;39.70;20.30;;;;;;;0.47;100.00;100526.44;5040766;28;20204;-74
2023/12/06 02:58:18;;;;;;;36.90;18.60;;;;;;;0.44;100.00;100519.94;5040764;28;20218;-74
2023/12/06 03:00:47;;;;;;;36.03;19.50;;;;;;;0.46;100.00;100525.66;5042067;28;20195;-73
2023/12/06 03:03:13;;;;;;;35.80;18.57;;;;;;;0.45;100.00;100521.50;5038867;28;20211;-74
2023/12/06 03:05:39;;;;;;;37.50;19.67;;;;;;;0.46;100.00;100522.25;5037704;28;20454;-73
2023/12/06 03:08:06;;;;;;;37.07;19.17;;;;;;;0.46;100.00;100514.47;5041858;28;20242;-74
2023/12/06 03:10:32;;;;;;;33.97;18.13;;;;;;;0.45;100.00;100510.31;5038904;28;20213;-74
2023/12/06 03:12:58;;;;;;;42.10;20.43;;;;;;;0.45;100.00;100513.72;5040232;28;20203;-74
2023/12/06 03:15:25;;;;;;;41.77;19.93;;;;;;;0.44;100.00;100504.38;5040543;28;20192;-74
2023/12/06 03:17:52;;;;;;;41.43;19.43;;;;;;;0.45;100.00;100515.50;5038126;28;20223;-74
2023/12/06 03:20:19;;;;;;;36.17;18.73;;;;;;;0.45;100.00;100508.50;5041598;28;20218;-75
2023/12/06 03:22:45;;;;;;;40.60;19.83;;;;;;;0.45;100.00;100516.31;5042157;28;20223;-74
2023/12/06 03:25:11;;;;;;;37.23;19.23;;;;;;;0.48;100.00;100515.00;5040975;28;20672;-74
2023/12/06 03:27:38;;;;;;;39.80;20.73;;;;;;;0.48;100.00;100513.16;5040696;28;20289;-73
2023/12/06 03:30:06;;;;;;;36.90;19.77;;;;;;;0.49;100.00;100514.75;5039935;28;20204;-74
2023/12/06 03:32:32;;;;;;;37.93;20.27;;;;;;;0.49;100.00;100509.56;5039632;28;20207;-74
2023/12/06 03:35:00;;;;;;;39.67;19.93;;;;;;;0.49;100.00;100513.97;5037098;28;20217;-75
2023/12/06 03:37:26;;;;;;;39.33;18.83;;;;;;;0.50;100.00;100502.53;5038940;28;20225;-74
2023/12/06 03:39:52;;;;;;;35.83;19.77;;;;;;;0.49;100.00;100503.56;5041448;28;20195;-74
2023/12/06 03:42:19;;;;;;;35.43;19.00;;;;;;;0.51;100.00;100507.47;5037620;28;20222;-74
2023/12/06 03:44:45;;;;;;;35.43;18.20;;;;;;;0.50;100.00;100500.72;5040553;28;20554;-74
2023/12/06 03:47:11;;;;;;;36.50;19.60;;;;;;;0.51;100.00;100504.88;5047306;28;20231;-73
2023/12/06 03:49:38;;;;;;;39.30;19.83;;;;;;;0.52;100.00;100503.06;5039142;28;20199;-73
2023/12/06 03:52:07;;;;;;;46.13;20.53;;;;;;;0.53;100.00;100504.63;5040981;28;20219;-74
2023/12/06 03:54:34;;;;;;;38.47;19.73;;;;;;;0.53;100.00;100507.22;5041244;28;20194;-74
2023/12/06 03:57:00;;;;;;;38.53;20.07;;;;;;;0.53;100.00;100502.00;5037397;28;20239;-74
2023/12/06 03:59:27;;;;;;;38.27;19.10;;;;;;;0.54;100.00;100506.16;5043845;28;20245;-73
2023/12/06 04:01:53;;;;;;;40.67;20.40;;;;;;;0.54;100.00;100513.97;5037656;28;20211;-74
2023/12/06 04:04:20;;;;;;;42.07;20.20;;;;;;;0.54;100.00;100509.56;5038754;28;20206;-74
2023/12/06 04:06:46;;;;;;;38.90;20.00;;;;;;;0.54;100.00;100512.16;5044524;28;20219;-74
2023/12/06 04:09:14;;;;;;;36.60;19.03;;;;;;;0.53;100.00;100515.75;5038036;28;20214;-74
2023/12/06 04:11:40;;;;;;;38.30;19.33;;;;;;;0.54;100.00;100525.13;5039554;28;20213;-74
2023/12/06 04:14:07;;;;;;;38.30;19.53;;;;;;;0.54;100.00;100514.75;5038679;28;20203;-74
2023/12/06 04:16:33;;;;;;;37.33;19.27;;;;;;;0.55;100.00;100518.09;5042011;28;20200;-74
2023/12/06 04:19:00;;;;;;;39.37;19.63;;;;;;;0.55;100.00;100523.31;5039465;28;20202;-74
2023/12/06 04:21:26;;;;;;;39.83;20.17;;;;;;;0.54;100.00;100519.94;5041532;28;20210;-74
2023/12/06 04:23:53;;;;;;;37.33;19.67;;;;;;;0.56;100.00;100527.44;5041200;28;20215;-74
2023/12/06 04:26:21;;;;;;;38.20;19.70;;;;;;;0.55;100.00;100516.31;5040247;28;20201;-74
2023/12/06 04:28:48;;;;;;;40.17;21.50;;;;;;;0.54;100.00;100516.56;5044422;28;20198;-74
2023/12/06 04:31:14;;;;;;;37.63;20.20;;;;;;;0.54;100.00;100524.34;5045452;28;20200;-74
2023/12/06 04:33:41;;;;;;;45.63;22.30;;;;;;;0.56;100.00;100532.66;5045931;28;20198;-74
2023/12/06 04:36:08;;;;;;;45.57;20.97;;;;;;;0.56;100.00;100525.66;5043215;28;20252;-75
2023/12/06 04:38:34;;;;;;;44.20;20.83;;;;;;;0.56;100.00;100528.25;5041694;28;20219;-74
2023/12/06 04:41:00;;;;;;;45.67;22.93;;;;;;;0.57;100.00;100526.44;5045003;28;20198;-75
2023/12/06 04:43:28;;;;;;;45.73;20.87;;;;;;;0.56;100.00;100525.66;5045500;28;20221;-74
2023/12/06 04:45:54;;;;;;;44.50;21.30;;;;;;;0.57;100.00;100524.59;5043425;28;20203;-74
2023/12/06 04:48:21;;;;;;;43.33;20.67;;;;;;;0.58;100.00;100526.16;5046015;28;20227;-74
2023/12/06 04:50:47;;;;;;;38.30;21.10;;;;;;;0.57;100.00;100522.00;5050234;28;20198;-73
2023/12/06 04:53:13;;;;;;;42.43;21.27;;;;;;;0.58;100.00;100528.00;5047992;28;20199;-75
2023/12/06 04:55:40;;;;;;;38.63;20.23;;;;;;;0.57;100.00;100529.78;5046157;28;20191;-74
2023/12/06 04:58:06;;;;;;;44.30;21.50;;;;;;;0.58;100.00;100528.75;5045725;28;20231;-74
2023/12/06 05:00:34;;;;;;;38.30;20.20;;;;;;;0.59;100.00;100529.53;5039351;28;20207;-74
2023/12/06 05:03:00;;;;;;;49.67;22.80;;;;;;;0.59;100.00;100529.53;5044818;28;20590;-74
2023/12/06 05:05:26;;;;;;;40.23;21.60;;;;;;;0.59;100.00;100526.94;5057370;28;20202;-74
2023/12/06 05:07:55;;;;;;;41.73;21.10;;;;;;;0.58;100.00;100528.00;5043452;28;20594;-74
2023/12/06 05:10:22;;;;;;;42.80;21.03;;;;;;;0.59;100.00;100529.53;5045164;28;20506;-74
2023/12/06 05:12:48;;;;;;;42.33;22.00;;;;;;;0.59;100.00;100530.34;5045638;28;20191;-74
2023/12/06 05:15:14;;;;;;;42.63;21.50;;;;;;;0.59;100.00;100537.34;5042345;28;20191;-74
2023/12/06 05:17:42;;;;;;;43.70;21.90;;;;;;;0.59;100.00;100535.53;5037733;28;20701;-74
2023/12/06 05:20:10;;;;;;;37.17;20.33;;;;;;;0.59;100.00;100529.53;5038346;28;20226;-74
2023/12/06 05:22:37;;;;;;;42.77;21.43;;;;;;;0.59;100.00;100539.94;5036938;28;20792;-74
2023/12/06 05:25:04;;;;;;;39.77;20.20;;;;;;;0.59;100.00;100545.13;5037843;28;20211;-74
2023/12/06 05:27:30;;;;;;;42.97;20.33;;;;;;;0.59;100.00;100543.31;5034999;28;20224;-74
2023/12/06 05:29:57;;;;;;;36.33;19.37;;;;;;;0.59;100.00;100543.31;5044494;28;20200;-75
2023/12/06 05:32:23;;;;;;;40.63;21.10;;;;;;;0.59;100.00;100545.91;5040802;28;20348;-74
2023/12/06 05:34:51;;;;;;;41.30;20.23;;;;;;;0.60;100.00;100544.09;5042371;28;20191;-74
2023/12/06 05:37:17;;;;;;;39.90;19.87;;;;;;;0.60;100.00;100542.28;5037527;28;20219;-75
2023/12/06 05:39:44;;;;;;;37.80;20.30;;;;;;;0.61;100.00;100543.84;5040379;28;20274;-74
2023/12/06 05:42:10;;;;;;;41.47;21.40;;;;;;;0.61;100.00;100545.63;5043287;28;20195;-74
2023/12/06 05:44:37;;;;;;;36.83;19.67;;;;;;;0.62;100.00;100540.19;5045307;28;20223;-74
2023/12/06 05:47:03;;;;;;;40.67;19.60;;;;;;;0.63;100.00;100539.13;5043282;28;20227;-75
2023/12/06 05:49:30;;;;;;;38.10;20.27;;;;;;;0.65;100.00;100549.28;5045309;28;20265;-73
2023/12/06 05:51:57;;;;;;;37.83;19.57;;;;;;;0.65;100.00;100544.09;5038747;28;20233;-74
2023/12/06 05:54:24;;;;;;;37.43;19.90;;;;;;;0.65;100.00;100550.06;5039327;28;20579;-74
2023/12/06 05:56:50;;;;;;;37.13;19.30;;;;;;;0.66;100.00;100549.03;5039418;28;20216;-74
2023/12/06 05:59:16;;;;;;;34.60;17.93;;;;;;;0.68;100.00;100548.78;5043368;28;20212;-74
2023/12/06 06:01:43;;;;;;;38.00;19.93;;;;;;;0.70;100.00;100546.69;5040389;28;20199;-75
2023/12/06 06:04:09;;;;;;;38.90;18.60;;;;;;;0.70;100.00;100541.47;5035497;28;20332;-74
2023/12/06 06:06:35;;;;;;;33.97;18.73;;;;;;;0.71;100.00;100537.84;5039412;28;20602;-74
2023/12/06 06:09:03;;;;;;;37.77;19.40;;;;;;;0.73;100.00;100546.94;5045521;28;20211;-74
2023/12/06 06:11:30;;;;;;;42.30;19.10;;;;;;;0.73;100.00;100540.97;5045071;28;20410;-74
2023/12/06 06:13:56;;;;;;;37.23;18.80;;;;;;;0.75;100.00;100549.28;5043024;28;20195;-74
2023/12/06 06:16:22;;;;;;;40.07;19.53;;;;;;;0.76;100.00;100545.63;5048634;28;20211;-74
2023/12/06 06:18:49;;;;;;;37.90;20.07;;;;;;;0.77;100.00;100544.59;5050954;28;20191;-74
2023/12/06 06:21:15;;;;;;;36.93;18.70;;;;;;;0.78;100.00;100546.94;5044743;28;20230;-75
2023/12/06 06:23:43;;;;;;;35.30;18.60;;;;;;;0.79;100.00;100545.13;5043053;28;20215;-75
2023/12/06 06:26:11;;;;;;;39.03;18.13;;;;;;;0.80;100.00;100549.28;5044781;28;20503;-74
2023/12/06 06:28:37;;;;;;;35.13;19.37;;;;;;;0.80;100.00;100551.88;5044409;28;20222;-75
2023/12/06 06:31:04;;;;;;;37.10;18.33;;;;;;;0.81;100.00;100546.41;5039087;28;20204;-74
2023/12/06 06:33:31;;;;;;;36.57;19.43;;;;;;;0.83;100.00;100551.38;5042146;28;20187;-74
2023/12/06 06:35:57;;;;;;;35.50;17.77;;;;;;;0.83;100.00;100551.38;5041699;28;20206;-75
2023/12/06 06:38:23;;;;;;;39.13;18.93;;;;;;;0.84;100.00;100551.06;5044344;28;20227;-75
2023/12/06 06:40:50;;;;;;;36.30;18.80;;;;;;;0.84;100.00;100545.88;5045682;28;20201;-74
2023/12/06 06:43:18;;;;;;;37.23;19.40;;;;;;;0.87;100.00;100560.16;5042486;28;20882;-74
2023/12/06 06:45:44;;;;;;;37.10;18.50;;;;;;;0.87;100.00;100557.56;5046018;28;20195;-75
2023/12/06 06:48:10;;;;;;;37.93;20.03;;;;;;;0.89;100.00;100558.09;5047902;28;20223;-74
2023/12/06 06:50:37;;;;;;;36.57;18.37;;;;;;;0.88;100.00;100559.91;5041721;28;20207;-74
2023/12/06 06:53:03;;;;;;;35.10;18.90;;;;;;;0.89;100.00;100563.31;5038808;28;20207;-75
2023/12/06 06:55:29;;;;;;;39.33;19.43;;;;;;;0.89;100.00;100555.50;5034363;28;20204;-74
2023/12/06 06:57:56;;;;;;;40.50;19.83;;;;;;;0.88;100.00;100570.31;5041246;28;20220;-75
2023/12/06 07:00:24;;;;;;;41.40;19.57;;;;;;;0.90;100.00;100567.47;5038477;28;20282;-74
2023/12/06 07:02:51;;;;;;;37.47;18.77;;;;;;;0.90;100.00;100562.25;5036140;28;20227;-75
2023/12/06 07:05:17;;;;;;;41.07;17.97;;;;;;;0.91;100.00;100569.00;5033996;28;20203;-74
2023/12/06 07:07:44;;;;;;;35.60;19.00;;;;;;;0.93;100.00;100572.13;5041377;28;20227;-74
2023/12/06 07:10:10;;;;;;;39.30;18.80;;;;;;;0.93;100.00;100572.13;5037980;28;20598;-74
2023/12/06 07:12:37;;;;;;;38.20;18.77;;;;;;;0.94;100.00;100573.69;5045679;28;20203;-74
2023/12/06 07:15:04;;;;;;;36.07;18.80;;;;;;;0.96;100.00;100575.00;5039347;28;20203;-75
2023/12/06 07:17:31;;;;;;;40.23;18.83;;;;;;;0.97;100.00;100578.34;5058502;28;20601;-74
2023/12/06 07:19:58;;;;;;;35.33;19.30;;;;;;;0.98;100.00;100591.09;5041170;28;20230;-74
2023/12/06 07:22:24;;;;;;;38.63;18.80;;;;;;;1.00;100.00;100590.84;5038849;28;20202;-74
2023/12/06 07:24:51;;;;;;;34.87;18.90;;;;;;;1.01;100.00;100595.78;5036765;28;20231;-74
2023/12/06 07:27:17;;;;;;;40.43;20.13;;;;;;;1.04;100.00;100599.69;5037870;28;20220;-74
2023/12/06 07:29:44;;;;;;;40.07;19.23;;;;;;;1.06;100.00;100606.19;5040613;28;20219;-74
2023/12/06 07:32:10;;;;;;;44.33;19.63;;;;;;;1.07;100.00;100605.13;5034713;28;20210;-74
2023/12/06 07:34:38;;;;;;;40.97;19.37;;;;;;;1.09;100.00;100597.06;5038822;28;20463;-74
2023/12/06 07:37:04;;;;;;;35.70;18.90;;;;;;;1.12;100.00;100597.31;5038339;28;20219;-75
2023/12/06 07:39:30;;;;;;;38.37;18.23;;;;;;;1.14;100.00;100608.22;5040253;28;20667;-74
2023/12/06 07:41:57;;;;;;;37.37;18.63;;;;;;;1.16;100.00;100608.78;5044114;28;20681;-74
2023/12/06 07:44:24;;;;;;;41.63;20.37;;;;;;;1.18;100.00;100609.28;5043114;28;20725;-74
2023/12/06 07:46:50;;;;;;;42.57;20.67;;;;;;;1.22;100.00;100612.13;5035878;28;20678;-74
2023/12/06 07:49:16;;;;;;;42.67;20.07;;;;;;;1.24;100.00;100610.81;5040385;28;20203;-74
2023/12/06 07:51:44;;;;;;;39.80;19.83;;;;;;;1.27;100.00;100607.72;5038577;28;20207;-74
2023/12/06 07:54:11;;;;;;;41.93;18.60;;;;;;;1.30;100.00;100607.16;5033725;28;20203;-74
2023/12/06 07:56:37;;;;;;;38.87;19.80;;;;;;;1.34;100.00;100612.63;5039953;28;20277;-74
2023/12/06 07:59:04;;;;;;;39.50;20.17;;;;;;;1.37;100.00;100612.09;5036858;28;20212;-74
2023/12/06 08:01:31;;;;;;;41.40;19.20;;;;;;;1.39;100.00;100604.81;5038284;28;20451;-74
2023/12/06 08:03:57;;;;;;;40.23;18.73;;;;;;;1.42;100.00;100606.88;5034388;28;20218;-74
2023/12/06 08:06:24;;;;;;;41.33;20.87;;;;;;;1.47;100.00;100609.47;5038253;28;20207;-74
2023/12/06 08:08:53;;;;;;;40.67;19.90;;;;;;;1.50;100.00;100614.91;5038589;28;20199;-74
2023/12/06 08:11:19;;;;;;;41.83;20.27;;;;;;;1.54;100.00;100609.97;5037394;28;20199;-74
2023/12/06 08:13:47;;;;;;;42.50;20.60;;;;;;;1.57;99.82;100614.66;5036941;28;20196;-74
2023/12/06 08:16:13;;;;;;;36.43;18.80;;;;;;;1.60;99.65;100616.69;5038413;28;20203;-75
2023/12/06 08:18:39;;;;;;;37.27;17.73;;;;;;;1.62;99.54;100625.81;5039369;28;20290;-74
2023/12/06 08:21:08;;;;;;;40.30;21.60;;;;;;;1.66;99.31;100623.47;5039329;28;20558;-74
2023/12/06 08:23:34;;;;;;;38.73;19.53;;;;;;;1.69;99.13;100625.53;5033622;28;20283;-74
2023/12/06 08:26:04;;;;;;;44.87;19.37;;;;;;;1.71;98.45;100628.66;5032120;28;20514;-74
2023/12/06 08:28:30;;;;;;;39.83;19.83;;;;;;;1.72;97.62;100625.78;5037840;28;20297;-74
2023/12/06 08:30:57;;;;;;;35.43;19.70;;;;;;;1.75;97.85;100627.84;5051405;28;20896;-74
2023/12/06 08:33:23;;;;;;;37.33;19.07;;;;;;;1.78;98.35;100627.34;5037226;28;20219;-74
2023/12/06 08:35:50;;;;;;;36.13;19.10;;;;;;;1.79;98.21;100631.50;5039485;28;20206;-75
2023/12/06 08:38:17;;;;;;;35.87;18.53;;;;;;;1.80;98.01;100633.03;5039816;28;20221;-74
2023/12/06 08:40:43;;;;;;;33.93;17.20;;;;;;;1.83;97.84;100631.75;5040503;28;20634;-75
2023/12/06 08:43:11;;;;;;;40.73;20.27;;;;;;;1.85;97.37;100634.84;5033901;28;20207;-75
2023/12/06 08:45:37;;;;;;;34.57;18.23;;;;;;;1.86;96.98;100631.97;5036606;28;20223;-75
2023/12/06 08:48:04;;;;;;;32.93;18.40;;;;;;;1.87;96.72;100641.34;5037749;28;20238;-74
2023/12/06 08:50:31;;;;;;;37.23;19.17;;;;;;;1.89;96.25;100634.06;5038226;28;20225;-75
2023/12/06 08:52:57;;;;;;;36.30;19.17;;;;;;;1.90;96.68;100646.03;5037348;28;20203;-74
2023/12/06 08:55:24;;;;;;;35.53;18.17;;;;;;;1.92;97.08;100632.75;5035990;28;20196;-74
2023/12/06 08:57:51;;;;;;;33.20;18.20;;;;;;;1.93;96.67;100640.28;5037443;28;20261;-74
2023/12/06 09:00:19;;;;;;;30.47;16.63;;;;;;;1.95;96.43;100642.63;5038687;28;20207;-75
2023/12/06 09:02:45;;;;;;;35.27;17.57;;;;;;;1.96;96.00;100644.97;5040634;28;20227;-74
2023/12/06 09:05:12;;;;;;;31.17;17.10;;;;;;;2.00;96.41;100647.81;5039887;28;20326;-75
2023/12/06 09:07:38;;;;;;;33.07;17.97;;;;;;;2.03;97.52;100648.03;5036822;28;20305;-75
2023/12/06 09:10:06;;;;;;;36.97;19.37;;;;;;;2.04;96.39;100646.22;5040883;28;20203;-74
2023/12/06 09:12:33;;;;;;;35.83;18.80;;;;;;;2.07;96.12;100649.06;5041300;28;20199;-74
2023/12/06 09:14:59;;;;;;;32.70;17.73;;;;;;;2.10;96.45;100651.16;5049052;28;20723;-74
2023/12/06 09:17:28;;;;;;;37.67;17.77;;;;;;;2.13;96.05;100652.44;5043934;28;20744;-74
2023/12/06 09:19:54;;;;;;;35.70;18.43;;;;;;;2.15;96.35;100653.75;5037850;28;20199;-74
2023/12/06 09:22:21;;;;;;;33.50;17.77;;;;;;;2.17;95.52;100656.84;5036206;28;20188;-74
2023/12/06 09:24:48;;;;;;;35.27;18.10;;;;;;;2.21;96.16;100662.28;5041060;28;20738;-74
2023/12/06 09:27:15;;;;;;;34.43;18.10;;;;;;;2.22;95.93;100661.25;5041740;28;20756;-74
2023/12/06 09:29:45;;;;;;;35.00;17.63;;;;;;;2.23;95.99;100671.41;5039884;28;20195;-74
2023/12/06 09:32:11;;;;;;;34.17;18.20;;;;;;;2.26;95.41;100662.25;5044853;28;20310;-74
2023/12/06 09:34:39;;;;;;;43.57;19.67;;;;;;;2.27;95.58;100662.00;5042513;28;20286;-74
2023/12/06 09:37:05;;;;;;;27.87;16.50;;;;;;;2.29;95.18;100659.91;5045117;28;20223;-74
2023/12/06 09:39:32;;;;;;;28.13;17.17;;;;;;;2.31;95.29;100663.03;5047154;28;20203;-74
2023/12/06 09:41:58;;;;;;;31.20;17.17;;;;;;;2.34;95.50;100664.31;5045179;28;20230;-74
2023/12/06 09:44:25;;;;;;;34.77;16.77;;;;;;;2.36;95.54;100668.22;5046878;28;20298;-74
2023/12/06 09:46:54;;;;;;;35.00;17.73;;;;;;;2.39;95.81;100659.09;5044960;28;20234;-74
2023/12/06 09:49:21;;;;;;;33.47;16.53;;;;;;;2.42;95.88;100658.53;5045809;28;20200;-74
2023/12/06 09:51:50;;;;;;;35.57;18.53;;;;;;;2.43;95.88;100655.66;5042622;28;20203;-74
2023/12/06 09:54:16;;;;;;;33.43;17.83;;;;;;;2.47;95.20;100661.09;5048793;28;20204;-74
2023/12/06 09:56:43;;;;;;;39.40;18.90;;;;;;;2.49;95.83;100656.41;5043781;28;20238;-74
2023/12/06 09:59:09;;;;;;;36.27;18.37;;;;;;;2.51;95.55;100656.91;5043497;28;21429;-74
2023/12/06 10:01:36;;;;;;;34.63;18.53;;;;;;;2.52;95.12;100656.66;5045395;28;20601;-74
2023/12/06 10:04:04;;;;;;;39.93;20.03;;;;;;;2.55;94.97;100661.31;5041634;28;20199;-74
2023/12/06 10:06:30;;;;;;;39.00;20.20;;;;;;;2.58;94.95;100657.38;5044719;28;20222;-74
2023/12/06 10:08:58;;;;;;;37.87;19.93;;;;;;;2.59;95.38;100656.38;5048969;28;21130;-74
2023/12/06 10:11:25;;;;;;;41.27;20.47;;;;;;;2.60;94.71;100658.66;5042108;28;20546;-74
2023/12/06 10:13:53;;;;;;;39.80;20.70;;;;;;;2.61;94.20;100654.25;5046000;28;20188;-74
2023/12/06 10:16:21;;;;;;;40.20;20.27;;;;;;;2.63;94.63;100659.97;5048640;28;20198;-74
2023/12/06 10:18:49;;;;;;;31.57;18.67;;;;;;;2.65;94.76;100640.41;5040184;28;20529;-74
2023/12/06 10:21:15;;;;;;;34.00;18.73;;;;;;;2.66;94.88;100646.41;5047375;28;20211;-74
2023/12/06 10:23:42;;;;;;;36.60;19.23;;;;;;;2.67;94.83;100648.75;5045573;28;20200;-74
2023/12/06 10:26:15;;;;;;;37.27;19.33;;;;;;;2.68;94.18;100652.09;5046024;28;20207;-74
2023/12/06 10:28:41;;;;;;;30.70;17.83;;;;;;;2.69;94.33;100658.91;5057393;28;20231;-74
2023/12/06 10:31:08;;;;;;;37.63;20.63;;;;;;;2.71;94.58;100651.56;5045961;28;20245;-74
2023/12/06 10:33:34;;;;;;;39.43;20.17;;;;;;;2.73;94.12;100639.03;5048929;28;20214;-74
2023/12/06 10:36:04;;;;;;;36.30;19.30;;;;;;;2.75;94.62;100644.78;5049522;28;20195;-74
2023/12/06 10:38:31;;;;;;;36.27;18.43;;;;;;;2.74;94.75;100649.19;5047588;28;20219;-74
2023/12/06 10:41:01;;;;;;;34.73;19.43;;;;;;;2.77;94.49;100650.50;5045964;28;20573;-74
2023/12/06 10:43:30;;;;;;;37.00;18.57;;;;;;;2.75;94.46;100650.75;5043022;28;20277;-74
2023/12/06 10:45:58;;;;;;;32.53;16.93;;;;;;;2.73;94.19;100642.44;5045161;28;20207;-74
2023/12/06 10:48:25;;;;;;;31.63;17.73;;;;;;;2.75;94.13;100644.78;5048379;28;20215;-74
2023/12/06 10:50:53;;;;;;;31.37;16.70;;;;;;;2.74;93.98;100643.97;5041395;28;20598;-74
2023/12/06 10:53:21;;;;;;;34.43;17.10;;;;;;;2.74;94.41;100637.97;5044920;28;20207;-74
2023/12/06 10:55:47;;;;;;;34.10;17.90;;;;;;;2.74;94.56;100638.78;5040402;28;20294;-74
2023/12/06 10:58:16;;;;;;;31.10;17.20;;;;;;;2.74;94.55;100633.56;5044713;28;20223;-74
2023/12/06 11:00:46;;;;;;;32.67;16.47;;;;;;;2.73;94.76;100637.22;5044047;28;20195;-74
2023/12/06 11:03:12;;;;;;;29.27;15.97;;;;;;;2.74;94.74;100635.38;5044014;28;20437;-75
2023/12/06 11:05:44;;;;;;;30.60;17.47;;;;;;;2.74;94.50;100630.16;5044194;28;20605;-74
2023/12/06 11:08:34;;;;;;;29.13;16.57;;;;;;;2.74;95.33;100635.38;5071677;28;20218;-75
2023/12/06 11:11:18;;;;;;;33.53;16.67;;;;;;;2.74;95.44;100628.34;5042010;28;20204;-75